Time;durP1;ratioP1;P1;durP2;ratioP2;P2;SDS_P1;SDS_P2;PMS_P1;PMS_P2;Temp;Humidity;BMP_temperature;BMP_pressure;BME280_temperature;BME280_humidity;BME280_pressure;Samples;Min_cycle;Max_cycle;Signal;HPM_P1;HPM_P2
2022/04/28 00:00:34;;;;;;;23.23;11.90;;;;;;;;;;4983213;28;20216;-81
2022/04/28 00:03:01;;;;;;;21.03;11.97;;;;;;;;;;4988282;28;21805;-81
2022/04/28 00:05:29;;;;;;;20.67;12.13;;;;;;;;;;4981390;28;20202;-82
2022/04/28 00:07:56;;;;;;;22.77;12.57;;;;;;;;;;4988548;28;20286;-82
2022/04/28 00:10:24;;;;;;;20.80;12.10;;;;;;;;;;4985328;28;20202;-81
2022/04/28 00:12:54;;;;;;;21.63;11.80;;;;;;;;;;4986839;28;20224;-81
2022/04/28 00:15:21;;;;;;;23.73;12.70;;;;;;;;;;4986800;28;20220;-81
2022/04/28 00:17:49;;;;;;;23.27;11.83;;;;;;;;;;4987750;28;20213;-80
2022/04/28 00:20:16;;;;;;;23.67;12.87;;;;;;;;;;4987509;28;20220;-81
2022/04/28 00:22:43;;;;;;;19.70;12.17;;;;;;;;;;4988103;28;20650;-81
2022/04/28 00:25:10;;;;;;;21.97;12.53;;;;;;;;;;4984585;28;21252;-82
2022/04/28 00:27:39;;;;;;;19.87;11.90;;;;;;;;;;4988623;28;20209;-79
2022/04/28 00:30:07;;;;;;;24.97;12.37;;;;;;;;;;4986648;28;20209;-80
2022/04/28 00:32:34;;;;;;;21.57;12.33;;;;;;;;;;4988676;28;20252;-80
2022/04/28 00:35:02;;;;;;;25.70;12.70;;;;;;;;;;4988535;28;20211;-80
2022/04/28 00:37:29;;;;;;;20.93;12.57;;;;;;;;;;4987865;28;20553;-80
2022/04/28 00:39:56;;;;;;;25.90;13.17;;;;;;;;;;4986104;28;20284;-81
2022/04/28 00:42:24;;;;;;;32.93;13.93;;;;;;;;;;4987241;28;20232;-80
2022/04/28 00:44:52;;;;;;;32.13;13.10;;;;;;;;;;4987616;28;20219;-80
2022/04/28 00:47:19;;;;;;;22.77;13.13;;;;;;;;;;4987642;28;20220;-80
2022/04/28 00:52:37;;;;;;;26.57;13.70;;;;;;;;;;4975266;28;20222;-79
2022/04/28 00:55:04;;;;;;;23.37;13.37;;;;;;;;;;4985257;28;20588;-81
2022/04/28 00:57:34;;;;;;;23.37;12.50;;;;;;;;;;4985967;28;20695;-82
2022/04/28 01:00:03;;;;;;;26.23;14.13;;;;;;;;;;4984742;28;20614;-82
2022/04/28 01:02:32;;;;;;;24.90;13.33;;;;;;;;;;4984342;28;20283;-82
2022/04/28 01:04:59;;;;;;;31.80;14.40;;;;;;;;;;4984225;28;20740;-82
2022/04/28 01:07:26;;;;;;;28.40;14.43;;;;;;;;;;4985755;28;20244;-83
2022/04/28 01:09:54;;;;;;;28.97;13.90;;;;;;;;;;4986071;28;20209;-82
2022/04/28 01:12:21;;;;;;;28.47;14.23;;;;;;;;;;4984521;28;20316;-81
2022/04/28 01:14:50;;;;;;;26.70;14.07;;;;;;;;;;4982465;28;20697;-80
2022/04/28 01:17:20;;;;;;;26.90;13.50;;;;;;;;;;4981160;28;20662;-82
2022/04/28 01:19:47;;;;;;;23.83;13.00;;;;;;;;;;4982590;28;20206;-81
2022/04/28 01:24:44;;;;;;;25.53;13.97;;;;;;;;;;4993470;28;20799;-77
2022/04/28 01:27:12;;;;;;;28.17;14.20;;;;;;;;;;4995676;28;20579;-76
2022/04/28 01:29:42;;;;;;;27.10;13.50;;;;;;;;;;4996747;28;20196;-76
2022/04/28 01:32:09;;;;;;;26.83;14.13;;;;;;;;;;4980739;28;20232;-76
2022/04/28 01:34:37;;;;;;;30.33;15.37;;;;;;;;;;4975938;28;20232;-77
2022/04/28 01:37:06;;;;;;;32.37;14.57;;;;;;;;;;4977389;28;20228;-76
2022/04/28 01:39:33;;;;;;;26.83;14.07;;;;;;;;;;4978038;28;20731;-77
2022/04/28 01:42:01;;;;;;;26.37;14.63;;;;;;;;;;4975978;28;20585;-76
2022/04/28 01:44:28;;;;;;;24.13;13.80;;;;;;;;;;4980299;28;20295;-76
2022/04/28 01:46:56;;;;;;;24.43;14.33;;;;;;;;;;4975895;28;21398;-77
2022/04/28 01:49:23;;;;;;;25.27;14.03;;;;;;;;;;4981569;28;20209;-76
2022/04/28 01:57:21;;;;;;;26.33;14.10;;;;;;;;;;4979187;28;20208;-77
2022/04/28 01:59:48;;;;;;;30.07;14.97;;;;;;;;;;4975925;28;20589;-76
2022/04/28 02:02:15;;;;;;;28.17;14.33;;;;;;;;;;4978466;28;20706;-77
2022/04/28 02:04:42;;;;;;;34.83;15.63;;;;;;;;;;4982297;28;20220;-77
2022/04/28 02:07:13;;;;;;;26.60;14.57;;;;;;;;;;4987017;28;20212;-77
2022/04/28 02:09:40;;;;;;;27.63;14.80;;;;;;;;;;4983459;28;20239;-77
2022/04/28 02:12:07;;;;;;;28.77;14.50;;;;;;;;;;4983099;28;20701;-77
2022/04/28 02:14:36;;;;;;;27.97;14.87;;;;;;;;;;4984643;28;20785;-78
2022/04/28 02:17:04;;;;;;;29.33;14.20;;;;;;;;;;4978236;28;20573;-77
2022/04/28 02:19:31;;;;;;;27.23;15.00;;;;;;;;;;4981300;28;20204;-78
2022/04/28 02:21:58;;;;;;;29.67;14.97;;;;;;;;;;4986037;28;20257;-79
2022/04/28 02:24:26;;;;;;;28.57;15.70;;;;;;;;;;4983771;28;20920;-78
2022/04/28 02:26:53;;;;;;;29.90;15.00;;;;;;;;;;4989206;28;20205;-78
2022/04/28 02:29:20;;;;;;;28.30;16.27;;;;;;;;;;4986465;28;20634;-78
2022/04/28 02:31:48;;;;;;;24.63;13.83;;;;;;;;;;4988674;28;20226;-78
2022/04/28 02:34:16;;;;;;;25.87;14.63;;;;;;;;;;4992707;28;20205;-78
2022/04/28 02:36:43;;;;;;;25.43;15.10;;;;;;;;;;4990787;28;20205;-78
2022/04/28 02:39:10;;;;;;;30.20;15.00;;;;;;;;;;4988888;28;20208;-78
2022/04/28 02:41:37;;;;;;;29.17;15.03;;;;;;;;;;4988121;28;20227;-79
2022/04/28 02:44:05;;;;;;;27.90;14.77;;;;;;;;;;4991903;28;20202;-78
2022/04/28 02:46:32;;;;;;;27.57;15.33;;;;;;;;;;4990626;28;20209;-78
2022/04/28 02:49:01;;;;;;;28.37;14.70;;;;;;;;;;4993324;28;20296;-78
2022/04/28 02:51:28;;;;;;;31.63;14.80;;;;;;;;;;4990266;28;20232;-79
2022/04/28 02:53:55;;;;;;;30.80;15.53;;;;;;;;;;4989379;28;20231;-78
2022/04/28 02:56:22;;;;;;;33.87;16.70;;;;;;;;;;4987562;28;20296;-78
2022/04/28 02:58:50;;;;;;;31.27;15.43;;;;;;;;;;4988627;28;20197;-79
2022/04/28 03:01:17;;;;;;;27.87;14.73;;;;;;;;;;4985226;28;20645;-78
2022/04/28 03:03:44;;;;;;;28.83;15.43;;;;;;;;;;4985017;28;20261;-78
2022/04/28 03:11:43;;;;;;;27.57;15.13;;;;;;;;;;4986272;28;20646;-78
2022/04/28 03:14:11;;;;;;;26.87;14.97;;;;;;;;;;4991995;28;20221;-78
2022/04/28 03:16:38;;;;;;;35.67;15.80;;;;;;;;;;4989460;28;20240;-78
2022/04/28 03:19:05;;;;;;;29.80;14.37;;;;;;;;;;4986826;28;20682;-78
2022/04/28 03:21:34;;;;;;;29.90;15.53;;;;;;;;;;4987981;28;20225;-78
2022/04/28 03:24:01;;;;;;;30.53;15.33;;;;;;;;;;4986431;28;20223;-78
2022/04/28 03:26:29;;;;;;;31.03;16.30;;;;;;;;;;4986675;28;20288;-78
2022/04/28 03:28:56;;;;;;;29.40;15.57;;;;;;;;;;4986798;28;20712;-79
2022/04/28 03:31:23;;;;;;;30.43;15.83;;;;;;;;;;4986606;28;20267;-78
2022/04/28 03:33:52;;;;;;;28.83;15.53;;;;;;;;;;4990057;28;20630;-78
2022/04/28 03:39:05;;;;;;;29.10;14.90;;;;;;;;;;4981954;28;20207;-78
2022/04/28 03:41:32;;;;;;;31.57;16.23;;;;;;;;;;4976957;28;20239;-78
2022/04/28 03:43:59;;;;;;;28.87;15.47;;;;;;;;;;4981285;28;20300;-78
2022/04/28 03:46:27;;;;;;;28.07;14.93;;;;;;;;;;4980937;28;20756;-78
2022/04/28 03:48:54;;;;;;;30.63;15.80;;;;;;;;;;4982161;28;20700;-78
2022/04/28 03:51:21;;;;;;;34.17;16.27;;;;;;;;;;4984598;28;20221;-78
2022/04/28 03:53:48;;;;;;;32.90;16.37;;;;;;;;;;4980351;28;20300;-78
2022/04/28 03:56:17;;;;;;;27.83;14.90;;;;;;;;;;4983203;28;20232;-78
2022/04/28 03:58:45;;;;;;;27.87;14.80;;;;;;;;;;4988126;28;20205;-78
2022/04/28 04:01:12;;;;;;;31.13;15.50;;;;;;;;;;4983810;28;20223;-79
2022/04/28 04:03:39;;;;;;;31.33;15.13;;;;;;;;;;4984232;28;20247;-78
2022/04/28 04:06:07;;;;;;;34.47;16.07;;;;;;;;;;4985036;28;20212;-78
2022/04/28 04:08:34;;;;;;;30.30;15.00;;;;;;;;;;4985747;28;20209;-78
2022/04/28 04:11:01;;;;;;;28.40;14.90;;;;;;;;;;4982946;28;20240;-78
2022/04/28 04:13:30;;;;;;;32.17;15.87;;;;;;;;;;4985791;28;20224;-79
2022/04/28 04:15:57;;;;;;;32.60;15.50;;;;;;;;;;4983062;28;20577;-79
2022/04/28 04:18:24;;;;;;;30.60;15.47;;;;;;;;;;4983771;28;20213;-78
2022/04/28 04:20:51;;;;;;;33.30;16.63;;;;;;;;;;4980580;28;20822;-78
2022/04/28 04:23:18;;;;;;;30.70;15.90;;;;;;;;;;4978821;28;20761;-78
2022/04/28 04:25:46;;;;;;;30.97;15.43;;;;;;;;;;4978427;28;20217;-78
2022/04/28 04:28:13;;;;;;;30.73;15.30;;;;;;;;;;4984002;28;20240;-78
2022/04/28 04:33:28;;;;;;;30.40;15.33;;;;;;;;;;4978979;28;20694;-79
2022/04/28 04:35:55;;;;;;;34.17;15.80;;;;;;;;;;4980811;28;20205;-79
2022/04/28 04:38:22;;;;;;;29.47;14.67;;;;;;;;;;4983259;28;20231;-79
2022/04/28 04:40:49;;;;;;;32.13;15.57;;;;;;;;;;4981156;28;20232;-79
2022/04/28 04:43:16;;;;;;;33.30;16.93;;;;;;;;;;4982658;28;20260;-78
2022/04/28 04:45:45;;;;;;;31.93;15.97;;;;;;;;;;4981655;28;20647;-79
2022/04/28 04:48:12;;;;;;;29.70;15.40;;;;;;;;;;4985116;28;20296;-79
2022/04/28 04:50:39;;;;;;;27.47;14.90;;;;;;;;;;4985988;28;20960;-79
2022/04/28 04:53:07;;;;;;;33.83;16.53;;;;;;;;;;4983511;28;20229;-79
2022/04/28 04:55:36;;;;;;;28.03;14.57;;;;;;;;;;4984086;28;20307;-81
2022/04/28 04:58:03;;;;;;;27.13;14.70;;;;;;;;;;4983302;28;20197;-78
2022/04/28 05:00:31;;;;;;;24.70;13.80;;;;;;;;;;4984064;28;21019;-78
2022/04/28 05:02:59;;;;;;;23.23;12.93;;;;;;;;;;4985262;28;20599;-80
2022/04/28 05:05:26;;;;;;;23.13;13.00;;;;;;;;;;4984944;28;20316;-80
2022/04/28 05:07:53;;;;;;;19.47;11.87;;;;;;;;;;4984199;28;20232;-80
2022/04/28 05:10:21;;;;;;;19.73;11.93;;;;;;;;;;4983062;28;20241;-79
2022/04/28 05:12:48;;;;;;;21.33;11.80;;;;;;;;;;4987651;28;20235;-79
2022/04/28 05:15:15;;;;;;;25.87;12.00;;;;;;;;;;4984247;28;20215;-80
2022/04/28 05:17:43;;;;;;;29.03;12.23;;;;;;;;;;4984464;28;20217;-79
2022/04/28 05:20:13;;;;;;;28.37;13.33;;;;;;;;;;4982996;28;20364;-79
2022/04/28 05:22:40;;;;;;;27.50;12.70;;;;;;;;;;4983308;28;20328;-79
2022/04/28 05:25:08;;;;;;;23.87;12.07;;;;;;;;;;4980144;28;20201;-79
2022/04/28 05:27:35;;;;;;;23.53;12.03;;;;;;;;;;4984343;28;20232;-79
2022/04/28 05:30:02;;;;;;;22.57;12.00;;;;;;;;;;4978534;28;20205;-78
2022/04/28 05:32:30;;;;;;;31.13;13.90;;;;;;;;;;4979621;28;20299;-80
2022/04/28 05:34:57;;;;;;;24.40;11.23;;;;;;;;;;4982026;28;20257;-81
2022/04/28 05:37:25;;;;;;;23.67;10.77;;;;;;;;;;4982792;28;20219;-81
2022/04/28 05:39:53;;;;;;;19.67;11.23;;;;;;;;;;4982445;28;20216;-79
2022/04/28 05:42:20;;;;;;;17.43;11.27;;;;;;;;;;4979396;28;20659;-79
2022/04/28 05:47:32;;;;;;;16.93;11.53;;;;;;;;;;4988161;28;20224;-80
2022/04/28 05:49:59;;;;;;;24.53;11.50;;;;;;;;;;4974501;28;20728;-80
2022/04/28 05:52:28;;;;;;;19.03;11.47;;;;;;;;;;4974342;28;20759;-81
2022/04/28 05:54:55;;;;;;;15.87;10.87;;;;;;;;;;4978157;28;20456;-79
2022/04/28 05:57:22;;;;;;;16.57;10.70;;;;;;;;;;4977148;28;21683;-81
2022/04/28 05:59:50;;;;;;;17.50;11.13;;;;;;;;;;4980969;28;20205;-80
2022/04/28 06:02:18;;;;;;;22.07;12.17;;;;;;;;;;4978755;28;20227;-81
2022/04/28 06:04:45;;;;;;;20.57;11.70;;;;;;;;;;4973497;28;20197;-80
2022/04/28 06:07:12;;;;;;;21.20;12.57;;;;;;;;;;4971656;28;20209;-80
2022/04/28 06:09:41;;;;;;;21.17;12.90;;;;;;;;;;4974422;28;20213;-79
2022/04/28 06:12:08;;;;;;;23.03;13.00;;;;;;;;;;4973444;28;20216;-81
2022/04/28 06:14:36;;;;;;;26.47;14.43;;;;;;;;;;4975815;28;20602;-81
2022/04/28 06:17:04;;;;;;;20.03;13.00;;;;;;;;;;4973184;28;20218;-80
2022/04/28 06:19:31;;;;;;;20.83;13.13;;;;;;;;;;4977885;28;20193;-80
2022/04/28 06:21:59;;;;;;;27.03;13.90;;;;;;;;;;4976995;28;20600;-80
2022/04/28 06:24:27;;;;;;;26.97;15.63;;;;;;;;;;4973348;28;20645;-81
2022/04/28 06:26:55;;;;;;;30.57;15.83;;;;;;;;;;4973128;28;20340;-79
2022/04/28 06:29:22;;;;;;;29.33;16.33;;;;;;;;;;4975705;28;20371;-81
2022/04/28 06:31:49;;;;;;;34.37;18.37;;;;;;;;;;4974304;28;20221;-81
2022/04/28 06:34:16;;;;;;;29.23;15.50;;;;;;;;;;4979824;28;20225;-79
2022/04/28 06:36:44;;;;;;;25.67;14.27;;;;;;;;;;4975710;28;20215;-81
2022/04/28 06:39:11;;;;;;;30.13;15.60;;;;;;;;;;4972785;28;20216;-81
2022/04/28 06:41:38;;;;;;;25.77;15.37;;;;;;;;;;4976847;28;20221;-82
2022/04/28 06:44:07;;;;;;;25.93;14.43;;;;;;;;;;4977042;28;20197;-82
2022/04/28 06:46:34;;;;;;;32.63;14.70;;;;;;;;;;4975530;28;20240;-81
2022/04/28 06:49:01;;;;;;;24.80;14.60;;;;;;;;;;4971652;28;20208;-80
2022/04/28 06:51:28;;;;;;;25.10;13.87;;;;;;;;;;4978641;28;20229;-81
2022/04/28 06:53:56;;;;;;;28.97;15.07;;;;;;;;;;4982993;28;20260;-81
2022/04/28 06:56:23;;;;;;;25.60;14.37;;;;;;;;;;4980836;28;20244;-81
2022/04/28 06:58:50;;;;;;;23.17;14.07;;;;;;;;;;4980861;28;20273;-80
2022/04/28 07:01:18;;;;;;;27.73;13.40;;;;;;;;;;4981134;28;20293;-80
2022/04/28 07:03:45;;;;;;;23.03;12.97;;;;;;;;;;4978112;28;20205;-81
2022/04/28 07:06:13;;;;;;;19.83;13.00;;;;;;;;;;4978877;28;20212;-80
2022/04/28 07:08:40;;;;;;;23.80;13.73;;;;;;;;;;4975586;28;20288;-81
2022/04/28 07:11:07;;;;;;;24.43;13.53;;;;;;;;;;4978065;28;20426;-80
2022/04/28 07:13:37;;;;;;;24.30;12.93;;;;;;;;;;4975709;28;20773;-81
2022/04/28 07:16:04;;;;;;;21.80;13.13;;;;;;;;;;4978693;28;20228;-82
2022/04/28 07:18:33;;;;;;;20.00;12.57;;;;;;;;;;4974879;28;20202;-81
2022/04/28 07:21:01;;;;;;;22.37;13.30;;;;;;;;;;4974142;28;20240;-79
2022/04/28 07:23:28;;;;;;;26.13;13.07;;;;;;;;;;4980222;28;20220;-82
2022/04/28 07:25:55;;;;;;;19.17;12.37;;;;;;;;;;4976799;28;20209;-81
2022/04/28 07:28:23;;;;;;;21.87;12.40;;;;;;;;;;4976785;28;20292;-80
2022/04/28 07:30:50;;;;;;;18.87;11.77;;;;;;;;;;4980176;28;20221;-80
2022/04/28 07:33:17;;;;;;;15.83;11.30;;;;;;;;;;4983222;28;20288;-81
2022/04/28 07:35:46;;;;;;;16.87;11.40;;;;;;;;;;4978946;28;20198;-79
2022/04/28 07:38:13;;;;;;;18.30;11.17;;;;;;;;;;4979398;28;20212;-81
2022/04/28 07:40:40;;;;;;;20.50;11.73;;;;;;;;;;4981129;28;20209;-81
2022/04/28 07:43:07;;;;;;;17.20;10.90;;;;;;;;;;4979395;28;20213;-80
2022/04/28 07:45:34;;;;;;;19.43;11.60;;;;;;;;;;4978637;28;20680;-80
2022/04/28 07:48:01;;;;;;;19.53;11.00;;;;;;;;;;4976921;28;20207;-80
2022/04/28 07:50:30;;;;;;;16.93;10.80;;;;;;;;;;4975684;28;20670;-80
2022/04/28 07:52:59;;;;;;;16.43;11.20;;;;;;;;;;4974444;28;20651;-80
2022/04/28 07:55:26;;;;;;;15.90;10.70;;;;;;;;;;4976865;28;20220;-81
2022/04/28 07:57:53;;;;;;;22.37;11.47;;;;;;;;;;4981659;28;20211;-81
2022/04/28 08:00:21;;;;;;;17.33;10.93;;;;;;;;;;4981554;28;20636;-80
2022/04/28 08:02:48;;;;;;;19.20;10.80;;;;;;;;;;4974837;28;20596;-80
2022/04/28 08:05:15;;;;;;;19.03;11.33;;;;;;;;;;4974993;28;20201;-81
2022/04/28 08:07:44;;;;;;;19.37;10.50;;;;;;;;;;4976330;28;20292;-81
2022/04/28 08:10:13;;;;;;;17.47;10.47;;;;;;;;;;4977332;28;20216;-82
2022/04/28 08:12:40;;;;;;;18.97;10.40;;;;;;;;;;4978694;28;20247;-81
2022/04/28 08:15:08;;;;;;;17.90;9.87;;;;;;;;;;4975076;28;20420;-81
2022/04/28 08:17:35;;;;;;;14.77;9.80;;;;;;;;;;4972516;28;20205;-79
2022/04/28 08:20:02;;;;;;;13.77;9.30;;;;;;;;;;4974362;28;20201;-81
2022/04/28 08:22:30;;;;;;;19.97;9.00;;;;;;;;;;4972052;28;20233;-81
2022/04/28 08:24:57;;;;;;;13.90;8.83;;;;;;;;;;4992106;28;20557;-79
2022/04/28 08:27:26;;;;;;;17.00;9.23;;;;;;;;;;4997184;28;20216;-79
2022/04/28 08:29:53;;;;;;;13.03;9.23;;;;;;;;;;5003970;28;20284;-80
2022/04/28 08:32:20;;;;;;;14.93;8.83;;;;;;;;;;4992334;28;20232;-79
2022/04/28 08:34:47;;;;;;;17.10;8.73;;;;;;;;;;4997375;28;20239;-78
2022/04/28 08:37:14;;;;;;;13.40;9.00;;;;;;;;;;5002019;28;20553;-78
2022/04/28 08:39:42;;;;;;;16.70;8.70;;;;;;;;;;4999148;28;20287;-80
2022/04/28 08:42:12;;;;;;;23.30;7.97;;;;;;;;;;5000656;28;20756;-78
2022/04/28 08:44:41;;;;;;;15.63;8.80;;;;;;;;;;4992919;28;20261;-79
2022/04/28 08:47:09;;;;;;;12.30;8.63;;;;;;;;;;4991291;28;20633;-79
2022/04/28 08:49:36;;;;;;;19.37;9.10;;;;;;;;;;4993000;28;21457;-79
2022/04/28 08:52:06;;;;;;;16.17;9.77;;;;;;;;;;4988883;28;20279;-81
2022/04/28 08:54:36;;;;;;;22.87;10.00;;;;;;;;;;4997238;28;20247;-79
2022/04/28 08:57:04;;;;;;;15.37;8.87;;;;;;;;;;5006723;28;20216;-78
2022/04/28 08:59:31;;;;;;;15.03;9.33;;;;;;;;;;4994557;28;20219;-80
2022/04/28 09:02:00;;;;;;;12.73;8.93;;;;;;;;;;4993303;28;20224;-78
2022/04/28 09:04:27;;;;;;;14.33;8.90;;;;;;;;;;4996820;28;20227;-80
2022/04/28 09:06:56;;;;;;;16.67;10.27;;;;;;;;;;4990300;28;20773;-79
2022/04/28 09:09:23;;;;;;;13.70;8.77;;;;;;;;;;4988340;28;20618;-80
2022/04/28 09:11:53;;;;;;;15.67;9.30;;;;;;;;;;4997235;28;20248;-80
2022/04/28 09:14:22;;;;;;;17.70;8.43;;;;;;;;;;4991787;28;20313;-82
2022/04/28 09:16:50;;;;;;;14.27;8.70;;;;;;;;;;4994122;28;20216;-81
2022/04/28 09:19:22;;;;;;;36.73;12.93;;;;;;;;;;4991891;28;20296;-79
2022/04/28 09:21:50;;;;;;;12.97;8.50;;;;;;;;;;4995648;28;20232;-79
2022/04/28 09:24:17;;;;;;;14.13;8.80;;;;;;;;;;4994843;28;20229;-78
2022/04/28 09:26:44;;;;;;;14.87;8.43;;;;;;;;;;4999527;28;20236;-80
2022/04/28 09:29:13;;;;;;;17.90;8.43;;;;;;;;;;4995433;28;20276;-79
2022/04/28 09:31:41;;;;;;;13.03;7.73;;;;;;;;;;4994607;28;20485;-80
2022/04/28 09:34:09;;;;;;;13.57;7.77;;;;;;;;;;4992295;28;20233;-81
2022/04/28 09:36:38;;;;;;;13.43;7.57;;;;;;;;;;4985935;28;20425;-80
2022/04/28 09:39:06;;;;;;;11.37;6.60;;;;;;;;;;4986558;28;20220;-80
2022/04/28 09:44:19;;;;;;;11.50;6.77;;;;;;;;;;4987920;28;20216;-76
2022/04/28 09:46:47;;;;;;;12.20;7.27;;;;;;;;;;4989858;28;20208;-80
2022/04/28 09:49:16;;;;;;;10.87;6.17;;;;;;;;;;4994871;28;20730;-81
2022/04/28 09:51:46;;;;;;;10.73;6.13;;;;;;;;;;4996184;28;20291;-81
2022/04/28 09:54:13;;;;;;;9.30;5.43;;;;;;;;;;4994846;28;20272;-79
2022/04/28 09:56:42;;;;;;;10.40;6.10;;;;;;;;;;4997618;28;20211;-78
2022/04/28 09:59:11;;;;;;;9.40;5.80;;;;;;;;;;4993779;28;20205;-78
2022/04/28 10:01:39;;;;;;;11.60;6.10;;;;;;;;;;4990628;28;20231;-79
2022/04/28 10:04:06;;;;;;;9.20;5.23;;;;;;;;;;4992306;28;20631;-78
2022/04/28 10:06:35;;;;;;;8.77;4.93;;;;;;;;;;4987508;28;20237;-79
2022/04/28 10:09:08;;;;;;;9.17;5.13;;;;;;;;;;4990534;28;20235;-78
2022/04/28 10:11:36;;;;;;;9.97;5.30;;;;;;;;;;4986049;28;20893;-78
2022/04/28 10:14:04;;;;;;;9.37;5.27;;;;;;;;;;4974677;28;20205;-80
2022/04/28 10:16:32;;;;;;;10.90;5.13;;;;;;;;;;4983237;28;20213;-79
2022/04/28 10:19:02;;;;;;;11.07;5.90;;;;;;;;;;4989358;28;20233;-79
2022/04/28 10:21:33;;;;;;;10.00;4.90;;;;;;;;;;4992805;28;20714;-78
2022/04/28 10:32:39;;;;;;;8.67;4.67;;;;;;;;;;4991657;28;20219;-80
2022/04/28 10:35:07;;;;;;;9.40;4.33;;;;;;;;;;4984723;28;20265;-82
2022/04/28 10:37:36;;;;;;;7.43;4.80;;;;;;;;;;4986934;28;20232;-81
2022/04/28 10:40:03;;;;;;;10.93;5.10;;;;;;;;;;4987683;28;20271;-79
2022/04/28 10:42:49;;;;;;;7.30;4.93;;;;;;;;;;4987600;28;20243;-80
2022/04/28 10:45:22;;;;;;;6.73;3.67;;;;;;;;;;4984635;28;20291;-82
2022/04/28 10:47:50;;;;;;;6.43;3.83;;;;;;;;;;4993149;28;20220;-82
2022/04/28 10:50:24;;;;;;;7.87;4.23;;;;;;;;;;4990069;28;20224;-80
2022/04/28 10:52:55;;;;;;;6.40;4.17;;;;;;;;;;4996359;28;20213;-81
2022/04/28 10:55:23;;;;;;;7.20;3.70;;;;;;;;;;4999011;28;20231;-81
2022/04/28 10:57:51;;;;;;;7.83;4.17;;;;;;;;;;4997869;28;20205;-82
2022/04/28 11:00:33;;;;;;;9.47;4.60;;;;;;;;;;4993878;28;20272;-82
2022/04/28 11:03:02;;;;;;;9.47;4.53;;;;;;;;;;4992343;28;20433;-81
2022/04/28 11:05:35;;;;;;;9.23;4.93;;;;;;;;;;4989205;28;20288;-82
2022/04/28 11:08:02;;;;;;;8.17;4.70;;;;;;;;;;4990843;28;20205;-81
2022/04/28 11:10:30;;;;;;;9.83;4.73;;;;;;;;;;4990964;28;20259;-80
2022/04/28 11:13:00;;;;;;;7.37;4.87;;;;;;;;;;4988722;28;20232;-81
2022/04/28 11:15:28;;;;;;;7.70;4.27;;;;;;;;;;4992050;28;20275;-80
2022/04/28 11:17:55;;;;;;;8.67;4.63;;;;;;;;;;4991020;28;20233;-81
2022/04/28 11:20:23;;;;;;;7.93;4.33;;;;;;;;;;4989679;28;20209;-80
2022/04/28 11:22:54;;;;;;;11.03;4.23;;;;;;;;;;4984648;28;20344;-83
2022/04/28 11:25:23;;;;;;;8.73;4.70;;;;;;;;;;4980014;28;21670;-80
2022/04/28 11:27:52;;;;;;;13.20;4.47;;;;;;;;;;4982052;28;20201;-79
2022/04/28 11:30:20;;;;;;;7.13;4.30;;;;;;;;;;4980070;28;20660;-80
2022/04/28 11:32:49;;;;;;;11.03;5.30;;;;;;;;;;4985511;28;20221;-82
2022/04/28 11:35:16;;;;;;;10.57;4.40;;;;;;;;;;4984204;28;20248;-80
2022/04/28 11:37:45;;;;;;;9.13;4.47;;;;;;;;;;4981810;28;20638;-80
2022/04/28 11:40:16;;;;;;;7.87;4.73;;;;;;;;;;4981788;28;20292;-82
2022/04/28 11:42:45;;;;;;;7.97;3.97;;;;;;;;;;4976832;28;20228;-79
2022/04/28 11:45:15;;;;;;;12.37;4.57;;;;;;;;;;4976710;28;20271;-79
2022/04/28 11:47:45;;;;;;;7.93;4.67;;;;;;;;;;4980588;28;20213;-79
2022/04/28 11:50:19;;;;;;;14.67;4.70;;;;;;;;;;4976605;28;20205;-78
2022/04/28 11:52:58;;;;;;;8.70;4.00;;;;;;;;;;4975705;28;20247;-80
2022/04/28 11:55:26;;;;;;;9.20;4.43;;;;;;;;;;4984064;28;20288;-79
2022/04/28 11:57:54;;;;;;;10.80;6.90;;;;;;;;;;4984239;28;20583;-78
2022/04/28 12:00:25;;;;;;;10.03;4.70;;;;;;;;;;4982180;28;20315;-78
2022/04/28 12:02:53;;;;;;;10.07;4.43;;;;;;;;;;4988970;28;20794;-77
2022/04/28 12:05:21;;;;;;;10.10;5.07;;;;;;;;;;4967624;28;20236;-77
2022/04/28 12:07:52;;;;;;;9.60;4.10;;;;;;;;;;4981689;28;20241;-78
2022/04/28 12:15:57;;;;;;;10.67;5.03;;;;;;;;;;4977680;28;20244;-77
2022/04/28 12:21:17;;;;;;;8.23;4.47;;;;;;;;;;4977550;28;20231;-77
2022/04/28 12:23:50;;;;;;;11.43;5.03;;;;;;;;;;4977661;28;20742;-78
2022/04/28 12:26:19;;;;;;;9.67;4.70;;;;;;;;;;4978355;28;20201;-81
2022/04/28 12:28:46;;;;;;;10.33;4.53;;;;;;;;;;4982019;28;20217;-78
2022/04/28 12:31:16;;;;;;;8.10;4.50;;;;;;;;;;4979533;28;20260;-82
2022/04/28 12:33:46;;;;;;;9.37;5.60;;;;;;;;;;4978877;28;20213;-80
2022/04/28 12:36:17;;;;;;;9.03;5.00;;;;;;;;;;4980934;28;20323;-78
2022/04/28 12:38:46;;;;;;;6.43;4.50;;;;;;;;;;4980139;28;20287;-79
2022/04/28 12:41:15;;;;;;;8.70;4.90;;;;;;;;;;4978276;28;20230;-79
2022/04/28 12:43:43;;;;;;;11.97;6.30;;;;;;;;;;4981396;28;21193;-77
2022/04/28 12:46:13;;;;;;;6.40;4.33;;;;;;;;;;4979735;28;20642;-78
2022/04/28 12:48:40;;;;;;;8.67;4.53;;;;;;;;;;4975976;28;20231;-79
2022/04/28 12:51:13;;;;;;;11.70;5.13;;;;;;;;;;4976291;28;20797;-80
2022/04/28 12:53:42;;;;;;;10.83;4.73;;;;;;;;;;4979103;28;20228;-79
2022/04/28 12:56:12;;;;;;;7.17;4.47;;;;;;;;;;4985043;28;20795;-79
2022/04/28 12:58:40;;;;;;;6.77;4.80;;;;;;;;;;4979809;28;20719;-78
2022/04/28 13:01:09;;;;;;;8.23;4.63;;;;;;;;;;4980691;28;20235;-80
2022/04/28 13:03:36;;;;;;;9.10;4.90;;;;;;;;;;4978994;28;20208;-79
2022/04/28 13:06:08;;;;;;;7.47;4.13;;;;;;;;;;4977450;28;20228;-80
2022/04/28 13:08:35;;;;;;;9.53;4.43;;;;;;;;;;4978278;28;20212;-81
2022/04/28 13:11:02;;;;;;;6.53;4.10;;;;;;;;;;4981767;28;20224;-82
2022/04/28 13:13:31;;;;;;;7.40;4.27;;;;;;;;;;4976082;28;20706;-79
2022/04/28 13:15:58;;;;;;;10.23;4.63;;;;;;;;;;4974249;28;20307;-82
2022/04/28 13:18:25;;;;;;;9.27;5.07;;;;;;;;;;4976152;28;21162;-81
2022/04/28 13:20:54;;;;;;;7.47;4.57;;;;;;;;;;4982541;28;20229;-82
2022/04/28 13:23:21;;;;;;;9.33;5.00;;;;;;;;;;5011657;23;20358;-79
2022/04/28 13:25:49;;;;;;;16.43;5.43;;;;;;;;;;5025206;28;20275;-79
2022/04/28 13:28:17;;;;;;;8.97;5.50;;;;;;;;;;5020398;28;20247;-80
2022/04/28 13:30:46;;;;;;;8.33;4.80;;;;;;;;;;5025952;28;20200;-80
2022/04/28 13:33:13;;;;;;;7.57;4.53;;;;;;;;;;5012030;28;20263;-79
2022/04/28 13:35:40;;;;;;;7.97;4.50;;;;;;;;;;5012390;28;20231;-80
2022/04/28 13:38:10;;;;;;;5.93;4.17;;;;;;;;;;5009644;28;20206;-80
2022/04/28 13:40:40;;;;;;;10.90;5.33;;;;;;;;;;5011954;28;20211;-81
2022/04/28 13:43:08;;;;;;;8.97;5.00;;;;;;;;;;5015257;28;20246;-80
2022/04/28 13:45:35;;;;;;;14.30;4.93;;;;;;;;;;5023577;28;20294;-80
2022/04/28 13:48:03;;;;;;;7.53;4.53;;;;;;;;;;5012424;28;20219;-80
2022/04/28 13:50:32;;;;;;;7.83;4.20;;;;;;;;;;5011131;28;20201;-80
2022/04/28 13:52:59;;;;;;;8.23;4.37;;;;;;;;;;5014992;28;20200;-80
2022/04/28 13:55:29;;;;;;;6.40;4.20;;;;;;;;;;5016710;28;22163;-80
2022/04/28 13:57:56;;;;;;;11.27;4.27;;;;;;;;;;5015140;28;20219;-80
2022/04/28 14:00:26;;;;;;;8.63;4.20;;;;;;;;;;5011257;28;20219;-80
2022/04/28 14:02:53;;;;;;;8.47;4.20;;;;;;;;;;5014352;28;20224;-81
2022/04/28 14:05:26;;;;;;;7.93;4.57;;;;;;;;;;5012899;28;20230;-80
2022/04/28 14:07:53;;;;;;;7.67;4.17;;;;;;;;;;5014252;28;20236;-80
2022/04/28 14:10:20;;;;;;;10.00;4.33;;;;;;;;;;5019956;28;20299;-80
2022/04/28 14:12:48;;;;;;;10.50;4.53;;;;;;;;;;5013872;28;20310;-79
2022/04/28 14:15:17;;;;;;;8.63;4.43;;;;;;;;;;5018006;28;20205;-80
2022/04/28 14:17:46;;;;;;;12.97;4.67;;;;;;;;;;5018826;28;20290;-80
2022/04/28 14:20:13;;;;;;;7.30;4.30;;;;;;;;;;5021569;28;20207;-80
2022/04/28 14:22:42;;;;;;;13.77;4.73;;;;;;;;;;5016146;28;20227;-80
2022/04/28 14:25:10;;;;;;;9.97;4.47;;;;;;;;;;5014774;28;20269;-80
2022/04/28 14:27:46;;;;;;;9.30;4.80;;;;;;;;;;5016221;28;20200;-80
2022/04/28 14:30:13;;;;;;;9.53;4.83;;;;;;;;;;5016722;28;20294;-80
2022/04/28 14:32:40;;;;;;;11.30;5.47;;;;;;;;;;5019629;28;20230;-80
2022/04/28 14:35:08;;;;;;;10.27;5.80;;;;;;;;;;5013481;28;20196;-80
2022/04/28 14:37:38;;;;;;;12.70;7.87;;;;;;;;;;5018811;28;20604;-80
2022/04/28 14:40:11;;;;;;;10.53;6.50;;;;;;;;;;5018755;28;20553;-80
2022/04/28 14:42:39;;;;;;;9.10;4.30;;;;;;;;;;5015291;28;20538;-80
2022/04/28 14:45:07;;;;;;;8.47;4.40;;;;;;;;;;5013510;28;20886;-80
2022/04/28 14:47:35;;;;;;;9.97;5.37;;;;;;;;;;5013431;28;20200;-80
2022/04/28 14:52:48;;;;;;;9.07;4.30;;;;;;;;;;5015163;28;20438;-81
2022/04/28 14:55:16;;;;;;;7.40;4.57;;;;;;;;;;5012467;28;20268;-80
2022/04/28 14:57:44;;;;;;;7.03;3.97;;;;;;;;;;5014324;28;20319;-79
2022/04/28 15:00:13;;;;;;;9.63;4.17;;;;;;;;;;5012202;28;20208;-79
2022/04/28 15:02:43;;;;;;;7.97;4.23;;;;;;;;;;5012704;28;20275;-79
2022/04/28 15:05:11;;;;;;;10.83;6.30;;;;;;;;;;5015592;28;20228;-79
2022/04/28 15:07:38;;;;;;;10.77;6.47;;;;;;;;;;5019760;28;20224;-79
2022/04/28 15:10:06;;;;;;;5.70;4.17;;;;;;;;;;5014382;28;20287;-79
2022/04/28 15:12:35;;;;;;;8.57;4.50;;;;;;;;;;5014391;28;20670;-79
2022/04/28 15:15:03;;;;;;;11.03;4.80;;;;;;;;;;5015057;28;20720;-79
2022/04/28 15:17:31;;;;;;;9.63;4.90;;;;;;;;;;5016983;28;20750;-78